Milestone, Ireland
Current Conditions -  °F | °C
As of 11:00 PM on Wednesday 28 Jan 2015 (Local Time) from EINN Reporting Station
Few Clouds Few Clouds  
Wind Chill: 28°   Ceiling: Unl
Heat Index: 39°   Visibility: 6mi
Dew Point: 34°   Wind: 24mph
Humidity: 81%   Direction: 260°W
Pressure: 29.56"   Gusts: NA
Location:  52.67°N, 8.08°W
Report Text: EINN 282200Z 26021KT 9999 FEW010 FEW018CB 04/01 Q1001 NOSIG
Loading
Personal Weather Stations






























Interactive Weather Map New forecast layout! Learn more

10-Day Weather Forecast

Advertisements
Track Severe Weather on mobile